Time;durP1;ratioP1;P1;durP2;ratioP2;P2;SDS_P1;SDS_P2;PMS_P1;PMS_P2;Temp;Humidity;BMP_temperature;BMP_pressure;BME280_temperature;BME280_humidity;BME280_pressure;Samples;Min_cycle;Max_cycle;Signal;HPM_P1;HPM_P2
2020/12/17 00:01:07;;;;;;;20.37;15.17;;;;;;;7.99;83.40;100256.63;5062801;28;20477;-70
2020/12/17 00:03:33;;;;;;;22.27;16.57;;;;;;;8.03;83.14;100258.91;5064020;28;20527;-70
2020/12/17 00:05:59;;;;;;;20.63;15.80;;;;;;;8.08;83.17;100255.88;5059303;28;20516;-71
2020/12/17 00:08:25;;;;;;;23.70;15.53;;;;;;;8.02;83.25;100256.38;5061209;28;20441;-70
2020/12/17 00:10:51;;;;;;;23.53;16.63;;;;;;;7.99;83.60;100249.47;5063773;28;20476;-71
2020/12/17 00:13:19;;;;;;;21.50;16.10;;;;;;;8.01;83.16;100242.22;5064418;28;20488;-66
2020/12/17 00:15:46;;;;;;;21.57;15.97;;;;;;;8.05;83.11;100254.28;5063510;28;20499;-77
2020/12/17 00:18:12;;;;;;;20.00;14.73;;;;;;;8.04;83.22;100247.28;5062024;28;20457;-77
2020/12/17 00:20:38;;;;;;;21.30;15.43;;;;;;;8.01;83.26;100252.88;5063614;28;20480;-73
2020/12/17 00:23:04;;;;;;;19.90;14.13;;;;;;;7.97;83.46;100262.06;5064393;28;20485;-71
2020/12/17 00:25:30;;;;;;;19.53;14.23;;;;;;;7.97;83.45;100245.22;5062432;28;20476;-74
2020/12/17 00:27:56;;;;;;;19.27;14.70;;;;;;;7.96;83.52;100252.38;5083467;28;20885;-73
2020/12/17 00:30:24;;;;;;;25.63;15.30;;;;;;;7.90;83.80;100250.22;5083281;28;20498;-74
2020/12/17 00:32:50;;;;;;;22.13;15.07;;;;;;;8.01;83.26;100254.69;5083739;28;20456;-76
2020/12/17 00:35:16;;;;;;;21.60;14.50;;;;;;;8.08;82.76;100256.72;5083182;28;20448;-73
2020/12/17 00:37:43;;;;;;;21.10;15.83;;;;;;;8.02;83.33;100256.38;5084252;28;20444;-69
2020/12/17 00:40:10;;;;;;;23.73;16.10;;;;;;;8.15;82.93;100253.56;5082848;28;20464;-70
2020/12/17 00:42:38;;;;;;;19.53;15.07;;;;;;;8.09;82.69;100247.78;5088513;28;20467;-75
2020/12/17 00:45:05;;;;;;;20.63;15.07;;;;;;;8.09;82.80;100257.59;5082748;28;20451;-67
2020/12/17 00:47:32;;;;;;;18.70;14.00;;;;;;;8.09;82.79;100255.75;5084292;28;20452;-69
2020/12/17 00:49:58;;;;;;;23.53;15.20;;;;;;;8.07;83.06;100244.38;5085764;28;20463;-68
2020/12/17 00:52:25;;;;;;;19.20;14.47;;;;;;;8.05;82.81;100250.78;5083290;28;20476;-68
2020/12/17 00:54:51;;;;;;;21.67;16.60;;;;;;;8.10;82.86;100256.59;5084929;28;20432;-68
2020/12/17 00:57:18;;;;;;;21.47;14.00;;;;;;;8.10;82.91;100245.94;5082834;28;20470;-68
2020/12/17 00:59:44;;;;;;;17.30;14.63;;;;;;;8.09;82.89;100249.59;5084990;28;20463;-68
2020/12/17 01:02:10;;;;;;;20.17;14.43;;;;;;;8.11;82.61;100247.66;5082440;28;20545;-67
2020/12/17 01:04:37;;;;;;;21.53;15.73;;;;;;;8.06;82.97;100252.50;5085185;28;20437;-68
2020/12/17 01:07:03;;;;;;;21.70;14.30;;;;;;;8.04;82.62;100252.63;5082967;28;20499;-67
2020/12/17 01:09:29;;;;;;;20.70;13.80;;;;;;;7.98;83.05;100247.78;5085341;28;20462;-68
2020/12/17 01:11:55;;;;;;;16.83;12.60;;;;;;;7.94;83.48;100237.53;5082907;28;20495;-67
2020/12/17 01:14:21;;;;;;;20.93;14.23;;;;;;;7.91;83.41;100247.41;5083895;28;20447;-68
2020/12/17 01:16:48;;;;;;;18.47;13.60;;;;;;;7.82;84.06;100242.00;5082823;28;20488;-67
2020/12/17 01:19:14;;;;;;;17.70;13.60;;;;;;;7.99;83.08;100243.31;5085106;28;20479;-68
2020/12/17 01:21:41;;;;;;;20.67;14.33;;;;;;;8.02;82.90;100238.59;5082354;28;20542;-68
2020/12/17 01:24:07;;;;;;;20.00;13.77;;;;;;;8.03;83.20;100239.44;5085104;28;20452;-68
2020/12/17 01:26:33;;;;;;;19.33;13.60;;;;;;;8.04;83.14;100241.97;5082556;28;21224;-67
2020/12/17 01:29:00;;;;;;;19.53;15.00;;;;;;;8.18;82.37;100245.34;5084962;28;20632;-68
2020/12/17 01:31:26;;;;;;;19.17;13.40;;;;;;;8.19;82.14;100231.03;5082678;28;20575;-68
2020/12/17 01:33:52;;;;;;;16.83;13.30;;;;;;;8.17;82.10;100235.63;5084798;28;20980;-68
2020/12/17 01:36:18;;;;;;;16.10;11.90;;;;;;;8.15;82.47;100238.44;5082935;28;20481;-68
2020/12/17 01:38:45;;;;;;;18.00;12.47;;;;;;;8.10;82.82;100249.44;5084313;28;20482;-68
2020/12/17 01:41:13;;;;;;;18.63;12.20;;;;;;;8.21;82.01;100243.25;5082938;28;20467;-68
2020/12/17 01:43:40;;;;;;;17.50;12.83;;;;;;;8.17;82.61;100243.63;5084461;28;20478;-68
2020/12/17 01:46:07;;;;;;;15.60;12.37;;;;;;;8.16;82.56;100244.59;5083290;28;20480;-68
2020/12/17 01:48:34;;;;;;;16.13;12.90;;;;;;;8.22;82.45;100242.28;5084386;28;20447;-68
2020/12/17 01:51:00;;;;;;;19.10;13.63;;;;;;;8.29;81.83;100248.78;5083098;28;20491;-68
2020/12/17 01:53:26;;;;;;;15.10;12.20;;;;;;;8.22;82.17;100244.09;5083974;28;20489;-68
2020/12/17 01:55:56;;;;;;;14.57;11.47;;;;;;;8.33;81.50;100252.03;5083186;28;20499;-68
2020/12/17 01:58:24;;;;;;;16.50;12.73;;;;;;;8.30;81.74;100244.31;5084670;28;20509;-68
2020/12/17 02:00:53;;;;;;;17.63;11.80;;;;;;;8.37;81.78;100247.34;5083006;28;20503;-68
2020/12/17 02:03:20;;;;;;;16.07;12.07;;;;;;;8.42;81.66;100248.66;5083754;28;20879;-68
2020/12/17 02:05:46;;;;;;;19.50;12.33;;;;;;;8.37;81.68;100250.00;5082999;28;20924;-68
2020/12/17 02:08:14;;;;;;;15.93;11.73;;;;;;;8.45;81.39;100244.91;5084529;28;20483;-68
2020/12/17 02:10:41;;;;;;;16.63;13.53;;;;;;;8.42;81.41;100239.78;5082649;28;20464;-68
2020/12/17 02:13:08;;;;;;;15.57;12.50;;;;;;;8.43;81.36;100252.16;5084575;28;20536;-68
2020/12/17 02:15:34;;;;;;;14.07;10.70;;;;;;;8.35;81.92;100242.13;5082715;28;20539;-68
2020/12/17 02:18:00;;;;;;;16.17;11.70;;;;;;;8.42;81.41;100239.78;5083921;28;20543;-68
2020/12/17 02:20:26;;;;;;;15.40;10.80;;;;;;;8.45;81.57;100242.22;5082718;28;20487;-68
2020/12/17 02:22:52;;;;;;;16.40;10.10;;;;;;;8.46;81.42;100249.25;5084101;28;20506;-68
2020/12/17 02:25:19;;;;;;;17.30;11.30;;;;;;;8.47;81.60;100249.13;5082801;28;20463;-67
2020/12/17 02:27:45;;;;;;;15.43;10.90;;;;;;;8.58;80.94;100240.25;5087449;28;20471;-68
2020/12/17 02:30:12;;;;;;;15.00;10.10;;;;;;;8.60;80.96;100240.97;5086493;28;20519;-67
2020/12/17 02:32:39;;;;;;;17.90;11.47;;;;;;;8.65;80.57;100237.91;5087670;28;20456;-68
2020/12/17 02:35:06;;;;;;;14.30;10.53;;;;;;;8.64;80.45;100230.88;5086030;28;20433;-67
2020/12/17 02:37:32;;;;;;;15.30;10.13;;;;;;;8.61;80.57;100237.34;5087323;28;20520;-68
2020/12/17 02:39:59;;;;;;;11.37;9.40;;;;;;;8.56;80.77;100234.19;5087689;28;20468;-68
2020/12/17 02:42:26;;;;;;;14.77;10.50;;;;;;;8.51;81.10;100230.25;5086281;28;20997;-68
2020/12/17 02:44:52;;;;;;;14.17;9.90;;;;;;;8.60;80.87;100227.63;5087129;28;21000;-68
2020/12/17 02:47:18;;;;;;;13.07;9.80;;;;;;;8.65;80.45;100225.44;5085470;28;20506;-68
2020/12/17 02:49:44;;;;;;;12.47;9.57;;;;;;;8.56;80.70;100234.19;5087623;28;20936;-68
2020/12/17 02:52:10;;;;;;;13.20;10.03;;;;;;;8.47;81.05;100222.50;5085575;28;20523;-68
2020/12/17 02:54:36;;;;;;;14.87;9.80;;;;;;;8.39;81.29;100221.41;5087225;28;20451;-68
2020/12/17 02:57:03;;;;;;;9.60;8.60;;;;;;;8.37;81.66;100224.19;5085672;28;20519;-68
2020/12/17 02:59:30;;;;;;;12.83;9.23;;;;;;;8.25;82.48;100227.88;5087013;28;20807;-68
2020/12/17 03:01:56;;;;;;;10.37;9.27;;;;;;;8.25;82.23;100230.53;5084898;28;20529;-68
2020/12/17 03:04:22;;;;;;;10.37;8.10;;;;;;;8.30;81.85;100217.69;5087133;28;20431;-68
2020/12/17 03:06:48;;;;;;;11.60;9.30;;;;;;;8.17;82.80;100220.50;5085453;28;20996;-68
2020/12/17 03:09:14;;;;;;;14.00;9.03;;;;;;;8.07;82.71;100222.22;5087441;28;20432;-68
2020/12/17 03:11:40;;;;;;;12.93;9.70;;;;;;;8.03;83.11;100218.13;5076209;28;20531;-68
2020/12/17 03:14:07;;;;;;;11.80;9.30;;;;;;;7.98;83.42;100230.97;5067142;28;20457;-68
2020/12/17 03:16:34;;;;;;;14.07;9.33;;;;;;;7.86;83.73;100222.16;5072223;28;20499;-68
2020/12/17 03:19:01;;;;;;;12.30;9.73;;;;;;;7.79;84.10;100234.25;5087498;28;20487;-68
2020/12/17 03:21:27;;;;;;;14.00;9.80;;;;;;;7.79;83.98;100227.13;5085181;28;20475;-68
2020/12/17 03:23:53;;;;;;;12.53;9.17;;;;;;;7.65;84.78;100220.25;5086901;28;20582;-68
2020/12/17 03:26:20;;;;;;;11.83;9.63;;;;;;;7.58;84.97;100219.03;5084590;28;20579;-68
2020/12/17 03:28:46;;;;;;;10.83;9.03;;;;;;;7.43;85.37;100214.94;5087084;28;20428;-68
2020/12/17 03:31:12;;;;;;;14.73;11.13;;;;;;;7.29;86.04;100219.53;5084986;28;20486;-68
2020/12/17 03:33:39;;;;;;;13.13;10.10;;;;;;;7.23;86.40;100221.84;5086395;28;20472;-68
2020/12/17 03:36:05;;;;;;;12.43;8.90;;;;;;;7.08;86.86;100214.09;5084934;28;20479;-68
2020/12/17 03:38:31;;;;;;;12.00;10.40;;;;;;;7.09;86.72;100223.75;5086348;28;20463;-68
2020/12/17 03:40:57;;;;;;;14.63;10.67;;;;;;;7.12;87.04;100226.16;5084811;28;20472;-68
2020/12/17 03:43:23;;;;;;;14.00;11.17;;;;;;;7.01;86.98;100226.13;5086452;28;20889;-68
2020/12/17 03:45:49;;;;;;;17.27;12.00;;;;;;;6.90;87.88;100221.66;5084748;28;20471;-68
2020/12/17 03:48:15;;;;;;;16.30;11.40;;;;;;;7.02;87.50;100227.84;5086154;28;20475;-68
2020/12/17 03:50:42;;;;;;;18.77;12.60;;;;;;;6.99;87.53;100222.75;5084775;28;20499;-68
2020/12/17 03:53:09;;;;;;;15.80;11.13;;;;;;;6.95;87.58;100222.16;5066208;28;20481;-68
2020/12/17 03:55:35;;;;;;;13.10;10.37;;;;;;;6.97;87.70;100220.22;5070480;28;20463;-68
2020/12/17 03:58:01;;;;;;;16.43;10.90;;;;;;;6.88;87.98;100209.47;5086865;28;20495;-68
2020/12/17 04:00:27;;;;;;;13.13;10.30;;;;;;;6.92;87.69;100213.56;5084727;28;20464;-68
2020/12/17 04:02:53;;;;;;;23.40;12.00;;;;;;;7.08;87.11;100205.25;5084981;28;20475;-68
2020/12/17 04:05:19;;;;;;;13.47;9.90;;;;;;;7.15;86.54;100209.13;5084668;28;20504;-68
2020/12/17 04:07:46;;;;;;;17.63;11.00;;;;;;;7.26;86.22;100208.31;5085903;28;20539;-68
2020/12/17 04:10:12;;;;;;;13.47;10.33;;;;;;;7.16;86.45;100205.50;5084104;28;20472;-68
2020/12/17 04:12:38;;;;;;;13.27;9.37;;;;;;;7.26;86.09;100203.81;5085962;28;20440;-68
2020/12/17 04:15:04;;;;;;;16.30;9.97;;;;;;;7.30;85.90;100202.59;5084244;28;20679;-67
2020/12/17 04:17:31;;;;;;;13.53;10.27;;;;;;;7.42;85.61;100194.63;5085471;28;20448;-68
2020/12/17 04:19:57;;;;;;;13.40;10.23;;;;;;;7.41;85.13;100195.59;5086291;28;20448;-68
2020/12/17 04:22:23;;;;;;;14.93;9.60;;;;;;;7.27;85.97;100189.53;5083815;28;20483;-68
2020/12/17 04:24:50;;;;;;;17.30;11.30;;;;;;;7.29;86.20;100192.09;5085893;28;20448;-68
2020/12/17 04:27:16;;;;;;;12.90;10.93;;;;;;;7.31;86.07;100198.16;5083845;28;20492;-68
2020/12/17 04:29:42;;;;;;;14.83;11.67;;;;;;;7.31;85.67;100187.50;5085573;28;20491;-68
2020/12/17 04:32:08;;;;;;;12.80;10.80;;;;;;;7.33;85.97;100194.41;5083903;28;20483;-68
2020/12/17 04:34:35;;;;;;;13.00;10.93;;;;;;;7.35;86.00;100175.66;5083525;28;20432;-68
2020/12/17 04:37:01;;;;;;;16.93;11.87;;;;;;;7.46;85.25;100175.63;5075647;28;20502;-68
2020/12/17 04:39:27;;;;;;;12.70;10.33;;;;;;;7.50;84.83;100184.25;5085605;28;20429;-68
2020/12/17 04:41:54;;;;;;;14.23;11.33;;;;;;;7.36;85.29;100185.34;5074522;28;20530;-68
2020/12/17 04:44:20;;;;;;;13.73;10.90;;;;;;;7.51;85.04;100181.44;5085694;28;20467;-68
2020/12/17 04:46:54;;;;;;;12.40;11.00;;;;;;;7.52;84.84;100187.63;5083336;28;20494;-67
2020/12/17 04:49:25;;;;;;;13.93;11.13;;;;;;;7.46;85.21;100180.94;5085353;28;20509;-68
2020/12/17 04:51:55;;;;;;;12.50;9.80;;;;;;;7.38;85.19;100183.41;5083995;28;20500;-68
2020/12/17 04:54:21;;;;;;;16.10;11.93;;;;;;;7.43;84.84;100177.69;5085076;28;20499;-68
2020/12/17 04:57:04;;;;;;;15.03;11.50;;;;;;;7.42;85.45;100187.50;5083578;28;20503;-68
2020/12/17 04:59:39;;;;;;;14.43;12.00;;;;;;;7.51;84.87;100186.75;5085012;28;20476;-68
2020/12/17 05:02:07;;;;;;;12.63;10.60;;;;;;;7.51;84.64;100192.06;5083228;28;20506;-68
2020/12/17 05:04:36;;;;;;;15.17;11.53;;;;;;;7.65;84.13;100190.13;5085086;28;20476;-68
2020/12/17 05:07:04;;;;;;;13.97;10.70;;;;;;;7.67;84.05;100188.19;5083109;28;20479;-68
2020/12/17 05:09:30;;;;;;;15.80;11.57;;;;;;;7.69;83.88;100188.91;5084770;28;20428;-68
2020/12/17 05:11:56;;;;;;;13.57;11.20;;;;;;;7.63;84.10;100203.56;5083386;28;20518;-68
2020/12/17 05:14:24;;;;;;;14.93;12.47;;;;;;;7.61;84.45;100194.03;5085086;28;20514;-68
2020/12/17 05:16:50;;;;;;;14.83;11.37;;;;;;;7.58;84.39;100194.25;5082181;28;20467;-68
2020/12/17 05:19:16;;;;;;;15.93;12.00;;;;;;;7.62;84.13;100191.25;5084526;28;20476;-68
2020/12/17 05:21:42;;;;;;;15.33;12.20;;;;;;;7.65;84.46;100200.78;5083213;28;20574;-68
2020/12/17 05:24:08;;;;;;;14.43;11.87;;;;;;;7.64;84.07;100194.63;5084482;28;20467;-68
2020/12/17 05:26:35;;;;;;;16.43;11.80;;;;;;;7.53;84.79;100199.94;5081886;28;20490;-68
2020/12/17 05:29:01;;;;;;;15.50;11.93;;;;;;;7.47;84.78;100198.63;5084828;28;20521;-68
2020/12/17 05:31:29;;;;;;;16.20;12.67;;;;;;;7.54;84.67;100193.66;5080942;28;20508;-68
2020/12/17 05:33:55;;;;;;;23.10;12.60;;;;;;;7.47;84.67;100190.63;5082215;28;21004;-67
2020/12/17 05:36:23;;;;;;;15.47;11.90;;;;;;;7.54;84.76;100193.66;5081305;28;20503;-68
2020/12/17 05:38:49;;;;;;;15.70;12.63;;;;;;;7.44;85.05;100198.00;5083985;28;20428;-68
2020/12/17 05:41:17;;;;;;;18.27;12.43;;;;;;;7.39;85.18;100202.84;5081120;28;20471;-68
2020/12/17 05:43:44;;;;;;;17.67;13.07;;;;;;;7.41;85.00;100207.06;5083617;28;20816;-68
2020/12/17 05:46:10;;;;;;;17.37;13.00;;;;;;;7.40;84.78;100208.06;5081391;28;20488;-68
2020/12/17 05:48:37;;;;;;;15.97;12.30;;;;;;;7.32;85.13;100213.13;5082832;28;20520;-67
2020/12/17 05:51:03;;;;;;;22.53;12.93;;;;;;;7.29;85.57;100208.91;5081720;28;20504;-68
2020/12/17 05:53:31;;;;;;;15.43;13.70;;;;;;;7.34;85.68;100213.84;5083647;28;20476;-68
2020/12/17 05:56:01;;;;;;;18.40;12.90;;;;;;;7.25;85.84;100214.56;5081138;28;20483;-68
2020/12/17 05:58:38;;;;;;;17.90;13.27;;;;;;;7.27;85.41;100212.63;5083849;28;20420;-68
2020/12/17 06:01:12;;;;;;;16.80;12.93;;;;;;;7.30;85.25;100207.91;5066680;28;20544;-68
2020/12/17 06:03:39;;;;;;;16.03;13.17;;;;;;;7.33;85.15;100215.66;5086364;28;20695;-67
2020/12/17 06:06:06;;;;;;;17.07;14.30;;;;;;;7.25;85.53;100212.75;5085883;28;20471;-68
2020/12/17 06:08:35;;;;;;;20.87;13.70;;;;;;;7.24;85.51;100227.03;5087135;28;20749;-68
2020/12/17 06:11:03;;;;;;;19.20;13.67;;;;;;;7.20;85.89;100214.94;5066695;28;20503;-68
2020/12/17 06:13:33;;;;;;;22.30;16.00;;;;;;;7.23;85.56;100233.31;5085794;28;20452;-68
2020/12/17 06:16:02;;;;;;;18.10;13.23;;;;;;;7.28;85.37;100232.97;5084432;28;20476;-67
2020/12/17 06:18:32;;;;;;;17.00;13.13;;;;;;;7.15;85.86;100241.88;5086027;28;20479;-68
2020/12/17 06:21:00;;;;;;;20.77;14.37;;;;;;;7.20;85.98;100230.03;5085139;28;20610;-68
2020/12/17 06:23:27;;;;;;;21.50;14.80;;;;;;;7.27;85.35;100247.22;5098131;28;20488;-68
2020/12/17 06:25:54;;;;;;;19.87;14.13;;;;;;;7.28;85.59;100246.25;5083798;28;20464;-68
2020/12/17 06:28:37;;;;;;;17.40;13.83;;;;;;;7.23;85.88;100248.41;5088461;28;21187;-67
2020/12/17 06:31:04;;;;;;;20.27;16.07;;;;;;;7.15;85.96;100244.56;5083350;28;20533;-68
2020/12/17 06:33:35;;;;;;;18.63;15.23;;;;;;;7.34;85.33;100243.97;5085883;28;20489;-67
2020/12/17 06:36:04;;;;;;;20.60;13.80;;;;;;;7.35;85.21;100248.31;5084330;28;20460;-68
2020/12/17 06:38:30;;;;;;;19.50;15.30;;;;;;;7.35;85.08;100247.47;5085511;28;20486;-66
2020/12/17 06:40:56;;;;;;;21.73;15.10;;;;;;;7.33;85.49;100244.91;5083083;28;20487;-68
2020/12/17 06:43:30;;;;;;;19.27;14.33;;;;;;;7.39;85.13;100248.06;5083179;28;20450;-67
2020/12/17 06:45:56;;;;;;;21.70;14.63;;;;;;;7.34;85.19;100248.41;5073846;28;20482;-67
2020/12/17 06:48:29;;;;;;;17.40;13.90;;;;;;;7.35;85.23;100237.66;5075937;28;20901;-68
2020/12/17 06:50:55;;;;;;;23.13;13.80;;;;;;;7.34;85.47;100241.31;5082391;28;20467;-68
2020/12/17 06:53:37;;;;;;;18.33;12.50;;;;;;;7.45;85.05;100236.97;5083266;28;20448;-68
2020/12/17 06:56:03;;;;;;;17.87;13.90;;;;;;;7.55;84.44;100243.22;5082432;28;20470;-67
2020/12/17 06:58:30;;;;;;;15.10;12.60;;;;;;;7.75;83.65;100241.66;5083534;28;20447;-69
2020/12/17 07:00:56;;;;;;;16.97;13.20;;;;;;;7.70;84.10;100250.00;5081674;28;20475;-70
2020/12/17 07:03:44;;;;;;;18.80;12.87;;;;;;;7.75;84.47;100256.78;5086881;28;21237;-67
2020/12/17 07:06:15;;;;;;;14.73;11.37;;;;;;;7.81;84.44;100262.47;5088909;28;20476;-68
2020/12/17 07:08:42;;;;;;;16.67;12.30;;;;;;;7.85;84.65;100265.72;5082195;28;20972;-68
2020/12/17 07:11:42;;;;;;;14.27;10.87;;;;;;;7.87;85.09;100275.25;5079360;28;20502;-67
2020/12/17 07:14:10;;;;;;;15.57;11.70;;;;;;;7.84;85.26;100274.66;5083936;28;20555;-68
2020/12/17 07:16:37;;;;;;;14.43;11.20;;;;;;;8.11;84.00;100272.44;5082555;28;20500;-68
2020/12/17 07:19:23;;;;;;;14.77;12.03;;;;;;;8.14;84.19;100267.84;5086227;28;20535;-68
2020/12/17 07:21:51;;;;;;;13.90;11.13;;;;;;;8.11;84.69;100283.09;5083854;28;20524;-71
2020/12/17 07:24:26;;;;;;;14.53;11.67;;;;;;;8.05;85.28;100274.75;5085487;28;20874;-67
2020/12/17 07:26:53;;;;;;;13.67;11.93;;;;;;;7.98;85.92;100294.88;5081877;28;20712;-66
2020/12/17 07:29:31;;;;;;;16.00;11.83;;;;;;;7.97;85.47;100288.69;5086184;28;20424;-68
2020/12/17 07:32:28;;;;;;;13.80;12.40;;;;;;;7.90;86.12;100288.34;5080888;28;20487;-69
2020/12/17 07:34:55;;;;;;;14.00;11.63;;;;;;;7.96;85.67;100300.31;5085452;28;20482;-68
2020/12/17 07:37:38;;;;;;;18.63;13.17;;;;;;;8.04;85.11;100295.22;5083263;28;20475;-67
2020/12/17 07:40:15;;;;;;;12.57;10.93;;;;;;;8.10;84.76;100285.88;5085322;28;20460;-67
2020/12/17 07:42:42;;;;;;;20.17;12.67;;;;;;;8.14;84.86;100292.66;5084525;28;20484;-67
2020/12/17 07:45:08;;;;;;;17.53;12.53;;;;;;;8.19;84.04;100290.47;5083311;28;20979;-68
2020/12/17 07:47:34;;;;;;;16.47;12.10;;;;;;;8.21;84.29;100285.88;5082966;28;20463;-67
2020/12/17 07:50:01;;;;;;;12.10;10.53;;;;;;;8.19;84.61;100284.28;5085347;28;20928;-69
2020/12/17 07:52:31;;;;;;;15.83;11.63;;;;;;;8.20;84.02;100283.34;5083022;28;20549;-67
2020/12/17 07:54:58;;;;;;;14.20;11.67;;;;;;;8.19;83.81;100293.13;5077824;28;20440;-68
2020/12/17 07:57:25;;;;;;;11.87;10.37;;;;;;;8.43;82.50;100290.31;5080237;28;20475;-68
2020/12/17 07:59:51;;;;;;;12.40;9.93;;;;;;;8.40;82.61;100290.56;5081293;28;20451;-68
2020/12/17 08:02:17;;;;;;;11.10;9.77;;;;;;;8.42;82.88;100285.97;5077361;28;20659;-67
2020/12/17 08:04:48;;;;;;;12.00;10.00;;;;;;;8.56;81.91;100287.50;5085429;28;20447;-68
2020/12/17 08:07:14;;;;;;;14.80;10.50;;;;;;;8.58;82.08;100287.38;5079195;28;20537;-67
2020/12/17 08:09:41;;;;;;;11.70;10.50;;;;;;;8.59;81.73;100289.91;5084084;28;20888;-68
2020/12/17 08:12:09;;;;;;;12.87;10.30;;;;;;;8.61;82.06;100308.41;5082914;28;20472;-68
2020/12/17 08:14:36;;;;;;;12.23;10.50;;;;;;;8.66;81.94;100299.09;5084954;28;20471;-68
2020/12/17 08:17:06;;;;;;;17.57;10.60;;;;;;;8.64;82.05;100311.69;5080160;28;20492;-67
2020/12/17 08:19:33;;;;;;;11.50;10.20;;;;;;;8.76;80.95;100314.31;5085055;28;20454;-67
2020/12/17 08:22:00;;;;;;;15.70;10.70;;;;;;;8.77;81.36;100318.69;5082784;28;20483;-67
2020/12/17 08:24:27;;;;;;;13.27;10.53;;;;;;;8.77;81.84;100324.84;5083692;28;20443;-67
2020/12/17 08:26:54;;;;;;;13.47;10.17;;;;;;;8.64;83.43;100334.81;5082018;28;20487;-68
2020/12/17 08:29:22;;;;;;;14.10;11.23;;;;;;;8.54;84.51;100325.88;5084660;28;20432;-67
2020/12/17 08:31:50;;;;;;;13.90;11.37;;;;;;;8.52;84.94;100336.66;5079485;28;20475;-68
2020/12/17 08:34:16;;;;;;;16.33;11.97;;;;;;;8.48;85.25;100338.75;5083851;28;20463;-68
2020/12/17 08:36:42;;;;;;;15.90;11.10;;;;;;;8.42;85.45;100343.69;5082488;28;20471;-68
2020/12/17 08:39:10;;;;;;;15.17;11.40;;;;;;;8.39;86.40;100352.78;5083576;28;20444;-68
2020/12/17 08:41:40;;;;;;;15.67;12.07;;;;;;;8.34;86.17;100349.66;5081933;28;20483;-68
2020/12/17 08:44:07;;;;;;;12.37;11.07;;;;;;;8.37;86.61;100359.22;5084303;28;20474;-70
2020/12/17 08:46:36;;;;;;;13.10;11.70;;;;;;;8.34;86.68;100352.31;5081370;28;20591;-69
2020/12/17 08:49:06;;;;;;;13.20;11.53;;;;;;;8.40;86.95;100366.94;5082361;28;20440;-70
2020/12/17 08:51:34;;;;;;;13.63;11.70;;;;;;;8.44;86.59;100368.44;5078707;28;20464;-70
2020/12/17 08:54:00;;;;;;;13.07;11.30;;;;;;;8.43;86.75;100378.22;5081844;28;20456;-70
2020/12/17 08:56:26;;;;;;;18.03;12.07;;;;;;;8.43;87.26;100388.06;5080412;28;20455;-70
2020/12/17 08:58:55;;;;;;;15.30;11.17;;;;;;;8.41;87.31;100388.13;5082232;28;20914;-69
2020/12/17 09:01:27;;;;;;;14.97;11.03;;;;;;;8.40;87.68;100393.59;5080431;28;20479;-70
2020/12/17 09:03:55;;;;;;;14.80;12.43;;;;;;;8.40;88.06;100394.44;5082524;28;20436;-69
2020/12/17 09:06:28;;;;;;;15.30;13.63;;;;;;;8.40;87.70;100402.44;5080801;28;20540;-71
2020/12/17 09:08:56;;;;;;;14.50;11.50;;;;;;;8.35;88.66;100409.09;5083585;28;20432;-69
2020/12/17 09:11:30;;;;;;;14.50;11.73;;;;;;;8.32;88.96;100404.88;5081713;28;20476;-67
2020/12/17 09:14:01;;;;;;;14.80;12.27;;;;;;;8.35;88.79;100399.31;5083275;28;20507;-66
2020/12/17 09:16:29;;;;;;;22.00;12.50;;;;;;;8.31;89.22;100397.84;5082263;28;20967;-66
2020/12/17 09:18:57;;;;;;;18.50;12.70;;;;;;;8.32;89.36;100404.03;5083576;28;20491;-68
2020/12/17 09:21:24;;;;;;;16.73;12.50;;;;;;;8.26;89.84;100408.88;5081138;28;20989;-70
2020/12/17 09:23:56;;;;;;;14.77;12.87;;;;;;;8.33;89.19;100414.53;5079074;28;20452;-69
2020/12/17 09:26:22;;;;;;;13.90;12.50;;;;;;;8.30;89.06;100420.13;5081687;28;20555;-68
2020/12/17 09:28:54;;;;;;;15.03;12.47;;;;;;;8.27;89.58;100425.69;5085035;28;20420;-68
2020/12/17 09:31:26;;;;;;;15.30;12.20;;;;;;;8.31;89.61;100432.47;5081956;28;20684;-68
2020/12/17 09:34:11;;;;;;;13.33;11.90;;;;;;;8.28;89.76;100435.38;5083304;28;20511;-68
2020/12/17 09:36:42;;;;;;;14.67;12.53;;;;;;;8.36;89.58;100440.94;5081856;28;20487;-70
2020/12/17 09:39:15;;;;;;;17.10;11.70;;;;;;;8.28;89.80;100438.91;5083846;28;20440;-68
2020/12/17 09:41:52;;;;;;;14.20;11.53;;;;;;;8.35;89.05;100444.59;5083030;28;20498;-68
2020/12/17 09:44:29;;;;;;;16.97;11.70;;;;;;;8.34;89.55;100460.69;5084239;28;20448;-67
2020/12/17 09:46:57;;;;;;;16.80;12.27;;;;;;;8.32;89.87;100459.97;5082583;28;20475;-68
2020/12/17 09:49:25;;;;;;;13.77;11.43;;;;;;;8.33;88.64;100445.66;5083943;28;20959;-67
2020/12/17 09:52:04;;;;;;;15.43;12.17;;;;;;;8.29;89.18;100439.72;5082190;28;20468;-67
2020/12/17 09:54:32;;;;;;;13.73;12.33;;;;;;;8.28;89.31;100470.00;5083884;28;20475;-67
2020/12/17 09:57:04;;;;;;;13.13;11.67;;;;;;;8.30;89.57;100460.94;5062629;28;20483;-68
2020/12/17 09:59:31;;;;;;;13.73;11.40;;;;;;;8.30;89.23;100468.91;5064486;28;20429;-67
2020/12/17 10:01:58;;;;;;;13.17;10.87;;;;;;;8.27;89.65;100470.97;5082038;28;20476;-67
2020/12/17 10:04:25;;;;;;;12.10;10.40;;;;;;;8.29;89.38;100483.19;5064509;28;20471;-67
2020/12/17 10:06:53;;;;;;;14.00;10.80;;;;;;;8.26;89.73;100483.47;5081084;28;20572;-68
2020/12/17 10:09:20;;;;;;;13.87;10.13;;;;;;;8.28;88.78;100478.84;5083419;28;20428;-68
2020/12/17 10:11:48;;;;;;;13.73;10.03;;;;;;;8.26;88.67;100491.44;5081904;28;20483;-67
2020/12/17 10:14:15;;;;;;;12.53;11.20;;;;;;;8.26;89.84;100486.13;5084247;28;20474;-68
2020/12/17 10:16:42;;;;;;;12.10;10.90;;;;;;;8.35;89.35;100489.88;5081676;28;20479;-68
2020/12/17 10:19:12;;;;;;;12.63;10.67;;;;;;;8.39;88.33;100501.13;5084137;28;20451;-68
2020/12/17 10:21:39;;;;;;;13.27;11.10;;;;;;;8.45;88.76;100509.53;5082227;28;20514;-68
2020/12/17 10:24:06;;;;;;;11.73;10.53;;;;;;;8.51;88.58;100510.03;5083675;28;20456;-67
2020/12/17 10:26:33;;;;;;;14.67;11.80;;;;;;;8.47;88.06;100515.59;5077994;28;20471;-67
2020/12/17 10:29:01;;;;;;;11.87;10.53;;;;;;;8.47;88.02;100512.06;5076785;28;20451;-68
2020/12/17 10:31:28;;;;;;;11.00;10.00;;;;;;;8.57;87.99;100501.53;5080831;28;20483;-67
2020/12/17 10:33:55;;;;;;;12.27;10.50;;;;;;;8.64;87.09;100506.25;5087203;28;20451;-72
2020/12/17 10:36:22;;;;;;;10.53;9.53;;;;;;;8.62;87.59;100510.84;5085499;28;20693;-71
2020/12/17 10:38:49;;;;;;;10.00;9.10;;;;;;;8.75;87.61;100517.88;5082722;28;20467;-71
2020/12/17 10:41:18;;;;;;;11.70;9.40;;;;;;;8.88;87.44;100515.91;5080674;28;20490;-73
2020/12/17 10:43:44;;;;;;;10.40;9.03;;;;;;;8.96;87.06;100505.50;5081823;28;20463;-72
2020/12/17 10:46:12;;;;;;;12.40;10.57;;;;;;;9.00;86.88;100517.59;5083134;28;20487;-75
2020/12/17 10:48:39;;;;;;;10.37;9.37;;;;;;;9.04;85.57;100519.06;5085386;28;20452;-70
2020/12/17 10:51:06;;;;;;;10.67;9.57;;;;;;;9.01;85.99;100521.97;5085815;28;20483;-70
2020/12/17 10:53:33;;;;;;;10.70;9.00;;;;;;;9.09;85.48;100517.84;5085774;28;20467;-72
2020/12/17 10:56:00;;;;;;;11.47;8.63;;;;;;;8.95;85.93;100519.78;5084461;28;20483;-69
2020/12/17 10:58:27;;;;;;;9.87;8.87;;;;;;;8.97;85.37;100528.50;5085181;28;20448;-70
2020/12/17 11:00:54;;;;;;;9.80;8.80;;;;;;;8.90;85.66;100534.47;5082804;28;20480;-71
2020/12/17 11:03:23;;;;;;;9.93;8.63;;;;;;;8.97;85.74;100528.50;5094973;28;20497;-70
2020/12/17 11:05:49;;;;;;;8.97;8.00;;;;;;;9.00;85.03;100538.94;5080073;28;20478;-71
2020/12/17 11:08:16;;;;;;;8.67;7.63;;;;;;;9.15;84.40;100531.53;5079094;28;20460;-70
2020/12/17 11:10:43;;;;;;;8.63;7.60;;;;;;;9.16;84.24;100527.03;5082886;28;20472;-71
2020/12/17 11:13:09;;;;;;;8.03;7.23;;;;;;;9.08;84.06;100541.00;5083603;28;20452;-71
2020/12/17 11:15:36;;;;;;;7.87;7.07;;;;;;;9.12;84.05;100539.78;5082590;28;20805;-70
2020/12/17 11:18:02;;;;;;;8.63;7.77;;;;;;;9.35;83.38;100539.72;5084560;28;20456;-71
2020/12/17 11:20:29;;;;;;;6.80;6.10;;;;;;;9.20;83.63;100542.66;5083489;28;20464;-70
2020/12/17 11:22:56;;;;;;;7.07;6.37;;;;;;;9.26;83.05;100533.31;5084121;28;20491;-70